Time;durP1;ratioP1;P1;durP2;ratioP2;P2;SDS_P1;SDS_P2;PMS_P1;PMS_P2;Temp;Humidity;BMP_temperature;BMP_pressure;BME280_temperature;BME280_humidity;BME280_pressure;Samples;Min_cycle;Max_cycle;Signal;HPM_P1;HPM_P2
2022/10/13 00:00:46;;;;;;;20.95;11.57;;;;;;;14.59;57.90;101879.59;4966858;28;118082;-71
2022/10/13 00:03:14;;;;;;;19.63;11.25;;;;;;;14.62;57.92;101880.38;4949807;28;124850;-71
2022/10/13 00:05:43;;;;;;;20.30;11.73;;;;;;;14.65;58.03;101872.25;4966307;28;127532;-71
2022/10/13 00:08:11;;;;;;;20.88;11.60;;;;;;;14.67;57.97;101873.03;4965087;28;119148;-70
2022/10/13 00:10:43;;;;;;;24.42;12.32;;;;;;;14.68;57.86;101874.78;4950053;28;118440;-71
2022/10/13 00:13:11;;;;;;;20.30;12.02;;;;;;;14.69;57.86;101871.16;4966352;28;124331;-71
2022/10/13 00:15:40;;;;;;;21.52;11.65;;;;;;;14.70;57.93;101862.25;4949251;28;124516;-71
2022/10/13 00:18:08;;;;;;;22.20;11.82;;;;;;;14.72;58.14;101857.72;4965727;28;120952;-71
2022/10/13 00:20:39;;;;;;;19.25;12.05;;;;;;;14.73;58.08;101856.75;4965493;28;119977;-70
2022/10/13 00:23:07;;;;;;;23.98;11.60;;;;;;;14.73;58.03;101856.75;4964422;28;123732;-71
2022/10/13 00:25:34;;;;;;;19.45;11.43;;;;;;;14.76;58.10;101861.97;4947272;28;123780;-70
2022/10/13 00:28:01;;;;;;;18.23;11.38;;;;;;;14.77;57.95;101858.38;4948726;28;118631;-70
2022/10/13 00:30:35;;;;;;;23.30;11.70;;;;;;;14.78;58.23;101849.41;4947805;28;118695;-70
2022/10/13 00:33:03;;;;;;;19.77;11.80;;;;;;;14.81;58.23;101843.09;4966145;28;124062;-71
2022/10/13 00:35:30;;;;;;;20.95;11.20;;;;;;;14.82;58.34;101840.31;4966571;28;124096;-71
2022/10/13 00:37:57;;;;;;;18.50;11.23;;;;;;;14.84;58.27;101833.13;4966424;28;119303;-70
2022/10/13 00:40:29;;;;;;;22.40;11.40;;;;;;;14.87;58.23;101832.97;4946582;28;118271;-71
2022/10/13 00:42:56;;;;;;;21.52;11.38;;;;;;;14.91;58.33;101834.56;4965299;28;124126;-70
2022/10/13 00:45:28;;;;;;;17.88;11.32;;;;;;;14.94;58.53;101839.75;4964544;28;123718;-71
2022/10/13 00:47:59;;;;;;;21.88;11.77;;;;;;;14.96;58.36;101837.88;4964500;28;119493;-72
2022/10/13 00:50:38;;;;;;;18.65;10.93;;;;;;;15.01;58.33;101834.13;4948157;28;118769;-71
2022/10/13 00:53:07;;;;;;;18.95;11.00;;;;;;;15.04;58.17;101844.66;4946112;28;124156;-71
2022/10/13 00:55:37;;;;;;;19.35;11.73;;;;;;;15.05;58.41;101841.94;4960151;28;123917;-71
2022/10/13 00:58:09;;;;;;;21.42;11.60;;;;;;;15.08;58.39;101840.91;4947577;28;118675;-71
2022/10/13 01:00:36;;;;;;;17.30;10.85;;;;;;;15.10;58.31;101839.03;4965758;28;119123;-71
2022/10/13 01:03:03;;;;;;;23.30;10.98;;;;;;;15.13;58.24;101838.91;4932395;28;123601;-71
2022/10/13 01:05:30;;;;;;;15.93;10.73;;;;;;;15.14;58.18;101840.59;4965198;28;124668;-71
2022/10/13 01:07:58;;;;;;;21.77;11.65;;;;;;;15.16;58.25;101839.63;4965300;28;120071;-71
2022/10/13 01:10:32;;;;;;;21.52;11.45;;;;;;;15.19;58.11;101838.59;4963916;28;119189;-71
2022/10/13 01:13:08;;;;;;;20.42;10.85;;;;;;;15.20;58.29;101843.00;4963467;28;123807;-70
2022/10/13 01:15:56;;;;;;;17.45;11.05;;;;;;;15.21;58.09;101842.03;4962699;28;124176;-71
2022/10/13 01:18:36;;;;;;;17.58;10.80;;;;;;;15.22;58.16;101838.44;4963994;28;120342;-71
2022/10/13 01:21:17;;;;;;;19.27;11.38;;;;;;;15.24;58.16;101841.03;4959051;28;119521;-71
2022/10/13 01:24:09;;;;;;;22.98;11.40;;;;;;;15.24;57.93;101831.22;4946852;28;124854;-71
2022/10/13 01:26:56;;;;;;;21.50;11.65;;;;;;;15.24;58.09;101841.91;4947184;28;123442;-71
2022/10/13 01:29:26;;;;;;;19.35;10.60;;;;;;;15.25;58.26;101835.63;4961056;28;118295;-70
2022/10/13 01:31:53;;;;;;;16.48;10.38;;;;;;;15.28;58.24;101832.81;4965938;28;118861;-71
2022/10/13 01:34:29;;;;;;;18.73;10.52;;;;;;;15.28;58.16;101822.13;4933893;28;123545;-71
2022/10/13 01:36:58;;;;;;;;;;;;;;;15.27;57.70;101825.72;4964244;28;123801;-68
2022/10/13 01:39:37;;;;;;;19.80;10.68;;;;;;;15.29;57.91;101823.84;4965527;28;119516;-68
2022/10/13 01:42:13;;;;;;;21.92;10.20;;;;;;;15.29;58.00;101829.19;4961166;28;119160;-71
2022/10/13 01:44:47;;;;;;;18.85;10.45;;;;;;;15.31;58.16;101824.66;4964004;28;124021;-71
2022/10/13 01:47:16;;;;;;;20.50;11.00;;;;;;;15.30;58.23;101819.38;4948490;28;123398;-71
2022/10/13 01:49:44;;;;;;;20.25;10.00;;;;;;;15.32;58.22;101823.69;4948017;28;118124;-71
2022/10/13 01:52:17;;;;;;;22.85;10.65;;;;;;;15.34;58.22;101816.47;4946243;28;117463;-71
2022/10/13 01:54:52;;;;;;;18.63;11.27;;;;;;;15.37;58.33;101820.81;4961445;28;124443;-71
2022/10/13 01:57:38;;;;;;;17.00;10.60;;;;;;;15.37;58.18;101816.34;4963682;28;124637;-70
2022/10/13 02:00:09;;;;;;;17.58;10.20;;;;;;;15.39;58.24;101816.28;4944627;28;120125;-70
2022/10/13 02:02:49;;;;;;;17.55;10.95;;;;;;;15.41;58.42;101816.16;4948576;28;120181;-70
2022/10/13 02:05:38;;;;;;;16.98;10.90;;;;;;;15.43;58.29;101822.31;4961680;28;124175;-71
2022/10/13 02:08:17;;;;;;;18.25;11.07;;;;;;;15.44;58.32;101808.00;4944965;28;123715;-71
2022/10/13 02:10:58;;;;;;;18.63;10.75;;;;;;;15.47;58.23;101799.88;4945333;28;118374;-71
2022/10/13 02:13:27;;;;;;;20.83;11.25;;;;;;;15.49;58.41;101797.97;4962442;28;117880;-71
2022/10/13 02:15:59;;;;;;;16.45;10.20;;;;;;;15.51;58.36;101796.94;4949869;28;123535;-71
2022/10/13 02:18:32;;;;;;;15.88;10.70;;;;;;;15.52;58.26;101798.69;4950902;28;124279;-71
2022/10/13 02:21:02;;;;;;;18.92;11.13;;;;;;;15.55;58.34;101786.97;4966165;28;119423;-71
2022/10/13 02:23:29;;;;;;;18.75;10.27;;;;;;;15.56;58.37;101794.06;4968596;28;118780;-71
2022/10/13 02:25:58;;;;;;;19.02;10.02;;;;;;;15.58;58.36;101792.19;4967299;28;124408;-71
2022/10/13 02:28:26;;;;;;;16.55;10.45;;;;;;;15.60;58.29;101789.44;4950923;28;124606;-71
2022/10/13 02:30:54;;;;;;;15.77;10.10;;;;;;;15.61;58.44;101785.81;4950559;28;117819;-71
2022/10/13 02:33:21;;;;;;;18.20;10.25;;;;;;;15.61;58.43;101775.97;4968179;28;118897;-71
2022/10/13 02:35:48;;;;;;;16.48;10.25;;;;;;;15.64;58.50;101786.50;4950245;28;123271;-71
2022/10/13 02:38:15;;;;;;;17.92;10.52;;;;;;;15.66;58.45;101781.94;4966673;28;122722;-71
2022/10/13 02:40:42;;;;;;;18.27;10.73;;;;;;;15.70;58.52;101780.84;4968328;28;119912;-71
2022/10/13 02:43:09;;;;;;;18.20;9.88;;;;;;;15.71;58.50;101787.94;4968635;28;119301;-71
2022/10/13 02:45:36;;;;;;;20.27;10.35;;;;;;;15.75;58.54;101781.50;4967926;28;123916;-71
2022/10/13 02:48:04;;;;;;;18.58;10.80;;;;;;;15.79;58.49;101784.03;4967624;28;126031;-71
2022/10/13 02:50:31;;;;;;;16.13;9.85;;;;;;;15.82;58.53;101781.19;4967167;28;120073;-71
2022/10/13 02:52:58;;;;;;;16.15;10.43;;;;;;;15.83;58.50;101775.78;4962220;28;120298;-71
2022/10/13 02:55:25;;;;;;;15.88;10.50;;;;;;;15.86;58.50;101774.72;4965880;28;125854;-70
2022/10/13 02:57:55;;;;;;;19.38;10.85;;;;;;;15.88;58.33;101767.50;4949126;28;122977;-71
2022/10/13 03:00:22;;;;;;;15.70;10.82;;;;;;;15.89;58.32;101763.91;4966945;28;119646;-70
2022/10/13 03:02:49;;;;;;;18.40;10.57;;;;;;;15.90;58.29;101770.97;4967599;28;119202;-71
2022/10/13 03:05:16;;;;;;;16.38;10.32;;;;;;;15.90;58.37;101760.31;4965952;28;123869;-71
2022/10/13 03:07:43;;;;;;;18.33;10.68;;;;;;;15.90;58.33;101760.31;4950373;28;124563;-71
2022/10/13 03:10:10;;;;;;;20.05;10.80;;;;;;;15.91;58.18;101756.66;4966589;28;119184;-70
2022/10/13 03:12:37;;;;;;;19.60;10.35;;;;;;;15.89;58.00;101759.41;4967584;28;118913;-71
2022/10/13 03:15:05;;;;;;;17.08;10.57;;;;;;;15.89;58.20;101748.72;4965978;28;124745;-71
2022/10/13 03:17:32;;;;;;;14.82;10.25;;;;;;;15.90;58.26;101749.63;4967169;28;123939;-71
2022/10/13 03:19:59;;;;;;;17.77;9.98;;;;;;;15.89;58.33;101753.22;4949812;28;119132;-71
2022/10/13 03:22:26;;;;;;;17.83;10.45;;;;;;;15.88;58.24;101751.47;4949329;28;119433;-71
2022/10/13 03:24:53;;;;;;;20.27;10.55;;;;;;;15.87;58.18;101739.06;4933441;28;123825;-71
2022/10/13 03:27:20;;;;;;;17.92;10.60;;;;;;;15.87;58.25;101733.72;4948131;28;123008;-70
2022/10/13 03:29:47;;;;;;;15.40;10.38;;;;;;;15.87;58.39;101744.41;4928344;28;118618;-71
2022/10/13 03:32:15;;;;;;;16.23;10.15;;;;;;;15.87;58.24;101739.06;4965712;28;119194;-71
2022/10/13 03:34:42;;;;;;;16.42;10.20;;;;;;;15.87;58.25;101739.06;4949429;28;123444;-71
2022/10/13 03:37:09;;;;;;;20.20;10.70;;;;;;;15.86;58.19;101742.69;4946471;28;124185;-71
2022/10/13 03:39:40;;;;;;;18.88;10.70;;;;;;;15.87;58.39;101739.06;4966049;28;120529;-71
2022/10/13 03:42:08;;;;;;;15.23;10.73;;;;;;;15.87;58.27;101744.41;4965714;28;119800;-71
2022/10/13 03:44:37;;;;;;;15.25;10.48;;;;;;;15.85;58.39;101740.97;4966825;28;124204;-70
2022/10/13 03:47:05;;;;;;;18.08;10.27;;;;;;;15.85;58.42;101740.97;4966319;28;124050;-71
2022/10/13 03:49:32;;;;;;;14.65;10.07;;;;;;;15.84;58.46;101736.56;4963170;28;119244;-71
2022/10/13 03:51:59;;;;;;;18.00;10.25;;;;;;;15.83;58.36;101737.53;4949934;28;118843;-71
2022/10/13 03:54:26;;;;;;;17.92;10.80;;;;;;;15.83;58.46;101737.53;4949721;28;124078;-71
2022/10/13 03:56:53;;;;;;;18.58;10.18;;;;;;;15.82;58.44;101738.44;4966886;28;123721;-71
2022/10/13 03:59:20;;;;;;;15.63;9.95;;;;;;;15.81;58.38;101734.06;4948000;28;119242;-70
2022/10/13 04:01:47;;;;;;;16.05;9.93;;;;;;;15.81;58.39;101734.91;4950032;28;119046;-71
2022/10/13 04:04:15;;;;;;;18.95;10.35;;;;;;;15.82;58.44;101735.78;4966522;28;124566;-71
2022/10/13 04:06:42;;;;;;;16.35;10.18;;;;;;;15.82;58.37;101731.28;4949891;28;123822;-70
2022/10/13 04:09:09;;;;;;;14.57;10.00;;;;;;;15.82;58.37;101727.75;4948845;28;118502;-71
2022/10/13 04:11:36;;;;;;;16.90;10.35;;;;;;;15.80;58.57;101726.97;4966908;28;119123;-71
2022/10/13 04:14:03;;;;;;;15.80;10.48;;;;;;;15.79;58.30;101714.59;4966101;28;124572;-73
2022/10/13 04:16:31;;;;;;;16.75;10.60;;;;;;;15.79;58.48;101719.94;4949030;28;123968;-71
2022/10/13 04:19:04;;;;;;;17.40;10.02;;;;;;;15.79;58.47;101717.25;4948310;28;119069;-71
2022/10/13 04:21:32;;;;;;;16.38;10.60;;;;;;;15.78;58.47;101719.03;4946808;28;119090;-71
2022/10/13 04:24:00;;;;;;;17.20;10.65;;;;;;;15.79;58.55;101714.59;4950313;28;123777;-71
2022/10/13 04:26:30;;;;;;;19.80;11.07;;;;;;;15.79;58.66;101714.59;4965552;28;124346;-71
2022/10/13 04:28:58;;;;;;;19.38;10.48;;;;;;;15.77;58.64;101718.19;4949171;28;120515;-70
2022/10/13 04:31:28;;;;;;;16.25;9.82;;;;;;;15.77;58.53;101712.84;4965888;28;119365;-71
2022/10/13 04:33:55;;;;;;;16.77;9.90;;;;;;;15.77;58.55;101702.16;4966368;28;124125;-71
2022/10/13 04:36:23;;;;;;;16.17;10.80;;;;;;;15.77;58.65;101707.50;4976276;28;123363;-71
2022/10/13 04:38:51;;;;;;;17.35;10.20;;;;;;;15.76;58.66;101699.56;4978550;28;119414;-71
2022/10/13 04:41:19;;;;;;;15.68;10.32;;;;;;;15.76;58.64;101700.47;4976952;28;118099;-70
2022/10/13 04:43:48;;;;;;;16.60;10.40;;;;;;;15.78;58.77;101703.03;4960023;28;123244;-70
2022/10/13 04:46:18;;;;;;;20.33;11.32;;;;;;;15.79;58.75;101701.22;4967984;28;123944;-70
2022/10/13 04:48:48;;;;;;;17.33;10.45;;;;;;;15.80;58.65;101703.81;4966763;28;120130;-71
2022/10/13 04:51:18;;;;;;;20.33;10.70;;;;;;;15.79;58.61;101699.41;4966650;28;118904;-71
2022/10/13 04:53:45;;;;;;;18.02;10.85;;;;;;;15.81;58.76;101702.00;4959452;28;123144;-71
2022/10/13 04:56:16;;;;;;;20.48;10.85;;;;;;;15.80;58.96;101700.28;4965216;28;123947;-71
2022/10/13 04:58:44;;;;;;;16.65;10.77;;;;;;;15.80;58.77;101692.25;4946751;28;119717;-71
2022/10/13 05:01:14;;;;;;;20.13;11.27;;;;;;;15.82;58.74;101693.03;4948655;28;117868;-71
2022/10/13 05:03:53;;;;;;;17.65;10.65;;;;;;;15.82;58.81;101688.53;4947923;28;124211;-71
2022/10/13 05:06:25;;;;;;;19.63;10.57;;;;;;;15.82;58.89;101687.69;4964406;28;124988;-70
2022/10/13 05:08:55;;;;;;;18.30;10.50;;;;;;;15.83;58.80;101678.75;4965293;28;120932;-70
2022/10/13 05:11:24;;;;;;;17.35;10.90;;;;;;;15.84;58.78;101681.34;4965056;28;119016;-71
2022/10/13 05:13:52;;;;;;;18.13;11.15;;;;;;;15.85;58.84;101692.88;4966922;28;124449;-71
2022/10/13 05:16:21;;;;;;;20.92;11.30;;;;;;;15.85;58.71;101682.19;4965799;28;123731;-71
2022/10/13 05:18:49;;;;;;;18.65;10.77;;;;;;;15.85;58.79;101690.22;4947655;28;119733;-70
2022/10/13 05:21:23;;;;;;;14.77;10.95;;;;;;;15.86;58.85;101689.25;4948618;28;120202;-70
2022/10/13 05:23:53;;;;;;;20.10;10.75;;;;;;;15.86;58.72;101689.25;4962779;28;123869;-70
2022/10/13 05:26:30;;;;;;;18.20;11.27;;;;;;;15.87;58.78;101691.00;4963149;28;123844;-72
2022/10/13 05:28:58;;;;;;;22.92;11.60;;;;;;;15.88;58.66;101698.03;4962741;28;118969;-70
2022/10/13 05:31:29;;;;;;;17.88;11.70;;;;;;;15.87;58.70;101691.00;4963605;28;120214;-70
2022/10/13 05:33:59;;;;;;;17.88;11.73;;;;;;;15.87;58.61;101685.66;4965752;28;124064;-71
2022/10/13 05:36:33;;;;;;;21.23;11.68;;;;;;;15.86;58.59;101675.91;4965355;28;123825;-72
2022/10/13 05:39:04;;;;;;;20.05;11.57;;;;;;;15.85;58.67;101682.19;4947621;28;119512;-70
2022/10/13 05:41:31;;;;;;;23.25;11.52;;;;;;;15.85;58.62;101692.88;4966057;28;118974;-70
2022/10/13 05:44:02;;;;;;;18.38;11.27;;;;;;;15.85;58.56;101698.22;4947673;28;123070;-72
2022/10/13 05:46:29;;;;;;;22.27;12.45;;;;;;;15.84;58.53;101712.50;4964686;28;123548;-70
2022/10/13 05:48:56;;;;;;;17.17;10.88;;;;;;;15.81;58.69;101707.34;4950722;28;118727;-71
2022/10/13 05:51:32;;;;;;;21.17;11.45;;;;;;;15.77;58.75;101704.84;4965603;28;119116;-70
2022/10/13 05:54:20;;;;;;;18.80;10.85;;;;;;;15.76;58.78;101704.91;4950789;28;124273;-70
2022/10/13 05:57:01;;;;;;;21.88;11.77;;;;;;;15.75;58.81;101701.38;4959048;28;123898;-70
2022/10/13 05:59:33;;;;;;;18.83;11.77;;;;;;;15.76;58.84;101689.78;4949506;28;118756;-70
2022/10/13 06:02:01;;;;;;;19.02;11.18;;;;;;;15.77;58.83;101699.50;4968278;28;118223;-70
2022/10/13 06:04:38;;;;;;;24.30;12.55;;;;;;;15.76;58.93;101689.78;4964857;28;123838;-72
2022/10/13 06:07:08;;;;;;;22.92;12.73;;;;;;;15.76;58.79;101681.75;4947187;28;123526;-70
2022/10/13 06:09:38;;;;;;;21.55;12.18;;;;;;;15.76;58.97;101684.44;4974077;28;121061;-70
2022/10/13 06:12:07;;;;;;;19.88;11.57;;;;;;;15.77;58.88;101686.13;4960979;28;120224;-70
2022/10/13 06:14:34;;;;;;;22.95;12.77;;;;;;;15.79;58.97;101687.88;4971307;28;123177;-70
2022/10/13 06:17:05;;;;;;;26.58;12.77;;;;;;;15.79;58.95;101690.56;4975101;28;124465;-70
2022/10/13 06:19:32;;;;;;;20.67;12.18;;;;;;;15.79;58.97;101682.53;4988491;28;120166;-70
2022/10/13 06:22:06;;;;;;;21.15;12.07;;;;;;;15.81;59.03;101680.66;4986382;28;119569;-70
2022/10/13 06:24:33;;;;;;;20.08;12.23;;;;;;;15.82;59.01;101682.34;4969587;28;123279;-69
2022/10/13 06:27:03;;;;;;;20.17;12.00;;;;;;;15.83;58.98;101684.94;4952334;28;125656;-70
2022/10/13 06:29:32;;;;;;;20.67;12.52;;;;;;;15.86;58.99;101686.59;4968599;28;119554;-70
2022/10/13 06:31:59;;;;;;;21.25;12.00;;;;;;;15.88;58.96;101679.34;4967215;28;119677;-70
2022/10/13 06:34:26;;;;;;;22.77;12.50;;;;;;;15.89;59.02;101683.75;4947874;28;124938;-70
2022/10/13 06:36:53;;;;;;;19.65;12.13;;;;;;;15.92;59.19;101678.25;4964718;28;123894;-70
2022/10/13 06:39:20;;;;;;;22.73;12.73;;;;;;;15.93;59.25;101670.13;4968932;28;119257;-70
2022/10/13 06:41:48;;;;;;;19.15;12.38;;;;;;;15.96;59.20;101669.13;4969513;28;119493;-71
2022/10/13 06:44:15;;;;;;;16.80;11.98;;;;;;;15.99;59.24;101674.28;4950643;28;122937;-71
2022/10/13 06:46:42;;;;;;;21.77;12.32;;;;;;;16.02;59.15;101668.78;4968409;28;124581;-70
2022/10/13 06:49:09;;;;;;;23.02;12.68;;;;;;;16.03;59.12;101658.94;4950774;28;118941;-70
2022/10/13 06:51:36;;;;;;;21.23;12.27;;;;;;;16.06;59.37;101654.28;4968198;28;119181;-70
2022/10/13 06:54:03;;;;;;;22.13;12.73;;;;;;;16.09;59.37;101664.84;4968201;28;124200;-71
2022/10/13 06:56:32;;;;;;;20.58;11.60;;;;;;;16.13;59.24;101666.38;4948102;28;123105;-71
2022/10/13 06:59:04;;;;;;;20.00;11.98;;;;;;;16.17;59.21;101667.06;4947449;28;119874;-70
2022/10/13 07:01:32;;;;;;;20.35;12.52;;;;;;;16.21;59.15;101673.13;4950617;28;119135;-70
2022/10/13 07:04:09;;;;;;;19.98;12.43;;;;;;;16.23;59.08;101682.75;4949297;28;123637;-70
2022/10/13 07:06:36;;;;;;;17.65;12.05;;;;;;;16.25;59.16;101680.00;4948735;28;123269;-71
2022/10/13 07:09:05;;;;;;;19.67;12.88;;;;;;;16.28;59.18;101674.50;4967434;28;119651;-70
2022/10/13 07:11:33;;;;;;;19.35;12.63;;;;;;;16.30;59.11;101672.59;4969431;28;119731;-71
2022/10/13 07:14:00;;;;;;;22.77;12.75;;;;;;;16.34;58.83;101668.81;4942269;28;123460;-71
2022/10/13 07:16:32;;;;;;;17.67;12.18;;;;;;;16.37;59.01;101663.31;4967027;28;124318;-71
2022/10/13 07:19:00;;;;;;;22.83;12.38;;;;;;;16.39;59.11;101669.41;4948745;28;119263;-71
2022/10/13 07:21:29;;;;;;;21.40;12.15;;;;;;;16.42;58.90;101669.22;4933256;28;118195;-71
2022/10/13 07:23:56;;;;;;;21.67;12.00;;;;;;;16.44;58.89;101675.34;4966408;28;123440;-71
2022/10/13 07:26:24;;;;;;;20.90;12.70;;;;;;;16.46;58.93;101675.28;4965936;28;123720;-71
2022/10/13 07:28:51;;;;;;;22.50;12.52;;;;;;;16.47;58.94;101664.50;4967880;28;119374;-70
2022/10/13 07:31:19;;;;;;;20.33;12.07;;;;;;;16.50;58.90;101663.44;4948442;28;117355;-70
2022/10/13 07:33:48;;;;;;;19.40;12.82;;;;;;;16.53;58.82;101669.47;4967065;28;124037;-70
2022/10/13 07:36:16;;;;;;;21.00;13.23;;;;;;;16.55;58.73;101678.28;4932433;28;123829;-70
2022/10/13 07:38:44;;;;;;;20.23;12.23;;;;;;;16.58;58.77;101671.06;4967110;28;118699;-70
2022/10/13 07:41:11;;;;;;;22.75;12.13;;;;;;;16.60;58.77;101671.81;4949850;28;118515;-70
2022/10/13 07:43:38;;;;;;;21.67;12.05;;;;;;;16.61;58.72;101678.88;4967526;28;124762;-70
2022/10/13 07:46:06;;;;;;;19.50;12.73;;;;;;;16.64;58.70;101670.69;4966823;28;123999;-70
2022/10/13 07:48:34;;;;;;;17.80;12.20;;;;;;;16.66;58.68;101669.66;4966934;28;122052;-70
2022/10/13 07:51:07;;;;;;;21.90;12.65;;;;;;;16.67;58.76;101681.19;4949933;28;120734;-70
2022/10/13 07:53:34;;;;;;;18.95;12.77;;;;;;;16.69;58.61;101673.97;4966088;28;124398;-70
2022/10/13 07:56:04;;;;;;;23.92;13.07;;;;;;;16.70;58.68;101681.03;4950068;28;124552;-71
2022/10/13 07:58:32;;;;;;;26.20;12.32;;;;;;;16.73;58.57;101686.22;4948858;28;119822;-70
2022/10/13 08:01:00;;;;;;;21.33;12.43;;;;;;;16.74;58.54;101679.91;4947901;28;118274;-70
2022/10/13 08:03:28;;;;;;;22.80;12.38;;;;;;;16.76;58.41;101675.31;4947609;28;124246;-70
2022/10/13 08:05:58;;;;;;;21.60;12.40;;;;;;;16.78;58.47;101668.06;4947261;28;123036;-71
2022/10/13 08:08:25;;;;;;;20.00;12.18;;;;;;;16.80;58.54;101682.25;4965264;28;120390;-70
2022/10/13 08:10:53;;;;;;;20.35;12.50;;;;;;;16.83;58.38;101686.59;4947886;28;119339;-71
2022/10/13 08:13:27;;;;;;;24.77;12.73;;;;;;;16.84;58.61;101683.81;4963649;28;124181;-71
2022/10/13 08:15:54;;;;;;;23.58;13.05;;;;;;;16.88;58.63;101685.38;4966778;28;123460;-71
2022/10/13 08:18:22;;;;;;;22.02;12.57;;;;;;;16.93;58.55;101683.28;4949683;28;119339;-70
2022/10/13 08:20:49;;;;;;;22.73;12.88;;;;;;;16.98;58.61;101679.47;4946133;28;118727;-70
2022/10/13 08:23:17;;;;;;;22.58;12.63;;;;;;;16.99;58.42;101673.16;4947336;28;124710;-71
2022/10/13 08:25:49;;;;;;;20.23;12.02;;;;;;;17.02;58.19;101675.66;4963664;28;123994;-70
2022/10/13 08:28:19;;;;;;;20.27;12.02;;;;;;;17.03;58.14;101666.69;4967235;28;119722;-71
2022/10/13 08:30:46;;;;;;;20.80;12.55;;;;;;;17.05;58.18;101671.00;4967406;28;118814;-71
2022/10/13 08:33:14;;;;;;;21.48;12.70;;;;;;;17.09;58.20;101660.97;4927734;28;123573;-70
2022/10/13 08:35:41;;;;;;;20.80;12.82;;;;;;;17.13;58.28;101665.19;4966072;28;124597;-70
2022/10/13 08:38:08;;;;;;;19.63;11.95;;;;;;;17.16;58.18;101662.34;4964889;28;120845;-71
2022/10/13 08:40:36;;;;;;;17.23;12.10;;;;;;;17.20;58.16;101658.50;4962448;28;120237;-70
2022/10/13 08:43:08;;;;;;;19.42;11.77;;;;;;;17.26;58.18;101668.84;4966341;28;123798;-70
2022/10/13 08:45:35;;;;;;;19.23;12.50;;;;;;;17.34;57.96;101659.50;4974141;28;124028;-70
2022/10/13 08:48:14;;;;;;;19.23;11.65;;;;;;;17.39;57.98;101663.63;4965608;28;119266;-70
2022/10/13 08:50:45;;;;;;;20.50;11.38;;;;;;;17.46;57.95;101653.38;4938297;28;118284;-71
2022/10/13 08:53:21;;;;;;;20.35;11.93;;;;;;;17.51;57.81;101660.19;4964579;28;124310;-71
2022/10/13 08:56:08;;;;;;;18.20;12.73;;;;;;;17.59;57.71;101659.69;4965488;28;124669;-71
2022/10/13 08:58:39;;;;;;;20.27;11.98;;;;;;;17.64;57.41;101652.25;4965096;28;118909;-69
2022/10/13 09:01:16;;;;;;;20.27;11.48;;;;;;;17.68;57.34;101659.13;4963093;28;118958;-71
2022/10/13 09:04:09;;;;;;;25.95;12.07;;;;;;;17.74;57.45;101651.69;4964227;28;125224;-71
2022/10/13 09:06:50;;;;;;;19.75;11.75;;;;;;;17.82;57.41;101649.38;4958693;28;124500;-71
2022/10/13 09:09:17;;;;;;;17.95;12.00;;;;;;;17.89;57.51;101640.91;4943742;28;118845;-71
2022/10/13 09:11:47;;;;;;;19.70;11.98;;;;;;;18.00;57.25;101637.53;4966890;28;119277;-71
2022/10/13 09:14:31;;;;;;;22.13;12.50;;;;;;;18.09;57.20;101630.72;4948497;28;123626;-71
2022/10/13 09:17:19;;;;;;;21.02;11.75;;;;;;;18.20;57.44;101643.47;4958878;28;124299;-70
2022/10/13 09:20:18;;;;;;;21.48;11.57;;;;;;;18.31;57.09;101630.22;4954898;28;119476;-71
2022/10/13 09:23:05;;;;;;;17.83;11.25;;;;;;;18.40;56.83;101637.66;4968532;28;119214;-72
2022/10/13 09:25:41;;;;;;;14.10;11.07;;;;;;;18.46;56.60;101629.19;4951376;28;124597;-72
2022/10/13 09:28:15;;;;;;;18.80;11.43;;;;;;;18.51;56.43;101644.13;4951341;28;123761;-70
2022/10/13 09:30:45;;;;;;;18.50;11.13;;;;;;;18.56;56.22;101628.59;4968470;28;120436;-70
2022/10/13 09:33:17;;;;;;;19.30;10.57;;;;;;;18.59;56.16;101639.09;4952334;28;119950;-72
2022/10/13 09:35:55;;;;;;;20.60;11.30;;;;;;;18.63;56.04;101635.28;4967453;28;124496;-70
2022/10/13 09:38:24;;;;;;;17.33;11.35;;;;;;;18.66;55.84;101641.28;4968848;28;124213;-71
2022/10/13 09:40:59;;;;;;;17.60;11.07;;;;;;;18.67;55.93;101634.13;4951608;28;118645;-70
2022/10/13 09:43:39;;;;;;;17.58;11.43;;;;;;;18.70;55.62;101630.34;4943886;28;119097;-70
2022/10/13 09:46:19;;;;;;;;;;;;;;;18.68;56.04;101638.50;4968029;28;124391;-70
2022/10/13 09:48:49;;;;;;;17.08;10.40;;;;;;;18.72;55.78;101629.28;4969340;28;124773;-70
2022/10/13 09:51:31;;;;;;;17.65;10.80;;;;;;;18.73;55.64;101624.78;4966901;28;119477;-71
2022/10/13 09:54:01;;;;;;;21.38;11.30;;;;;;;18.74;55.64;101622.00;4951826;28;118553;-70
2022/10/13 09:56:35;;;;;;;17.10;10.40;;;;;;;18.74;55.36;101627.38;4967804;28;125101;-70
2022/10/13 09:59:32;;;;;;;15.65;10.63;;;;;;;18.73;55.68;101622.97;4967944;28;124238;-70
2022/10/13 10:02:14;;;;;;;17.35;10.38;;;;;;;18.74;55.41;101621.13;4966954;28;120283;-70
2022/10/13 10:04:46;;;;;;;19.38;10.38;;;;;;;18.73;55.37;101620.28;4955537;28;119138;-70
2022/10/13 10:07:20;;;;;;;16.52;11.20;;;;;;;18.74;55.37;101627.38;4951117;28;123860;-70
2022/10/13 10:09:53;;;;;;;18.67;11.02;;;;;;;18.76;55.41;101620.09;4950969;28;124349;-71
2022/10/13 10:12:26;;;;;;;18.13;10.90;;;;;;;18.77;55.45;101624.47;4966928;28;119589;-70
2022/10/13 10:14:54;;;;;;;15.23;10.43;;;;;;;18.78;55.46;101618.16;4966701;28;119318;-70
2022/10/13 10:17:31;;;;;;;18.25;10.55;;;;;;;18.78;55.20;101623.53;4951338;28;122870;-70
2022/10/13 10:20:40;;;;;;;16.90;10.35;;;;;;;18.79;55.29;101619.00;4967767;28;125307;-70
2022/10/13 10:23:28;;;;;;;16.10;10.35;;;;;;;18.80;55.23;101616.25;4955381;28;122373;-70
2022/10/13 10:26:10;;;;;;;15.55;10.25;;;;;;;18.80;55.26;101616.25;4950195;28;119556;-70
2022/10/13 10:29:09;;;;;;;19.30;10.25;;;;;;;18.81;55.34;101617.09;4951190;28;123824;-70
2022/10/13 10:31:49;;;;;;;15.95;10.02;;;;;;;18.80;55.08;101616.25;4955881;28;124473;-70
2022/10/13 10:34:41;;;;;;;14.13;9.65;;;;;;;18.79;55.24;101614.50;4948385;28;118882;-70
2022/10/13 10:37:32;;;;;;;16.27;10.90;;;;;;;18.79;55.39;101614.50;4963082;28;118195;-70
2022/10/13 10:40:33;;;;;;;16.92;9.55;;;;;;;18.81;55.25;101617.09;4949609;28;122912;-70
2022/10/13 10:43:24;;;;;;;16.30;10.27;;;;;;;18.82;55.30;101614.31;4939635;28;123179;-70
2022/10/13 10:45:55;;;;;;;20.60;10.18;;;;;;;18.81;55.39;101615.28;4968093;28;119666;-70
2022/10/13 10:48:29;;;;;;;17.23;10.45;;;;;;;18.79;55.32;101619.84;4967794;28;119878;-70
2022/10/13 10:50:58;;;;;;;17.25;10.30;;;;;;;18.77;55.66;101619.09;4949761;28;123963;-71
2022/10/13 10:53:53;;;;;;;14.60;10.25;;;;;;;18.75;55.63;101612.97;4966005;28;124485;-70
2022/10/13 10:56:29;;;;;;;16.88;10.23;;;;;;;18.74;55.80;101610.41;4960555;28;119198;-71
2022/10/13 10:59:18;;;;;;;17.15;10.18;;;;;;;18.71;55.91;101611.47;4966933;28;119816;-71
2022/10/13 11:01:54;;;;;;;17.83;10.43;;;;;;;18.70;56.44;101609.72;4967856;28;123924;-72
2022/10/13 11:04:30;;;;;;;14.63;9.48;;;;;;;18.68;56.17;101611.66;4965959;28;123766;-71
2022/10/13 11:06:58;;;;;;;15.15;10.02;;;;;;;18.68;56.48;101611.66;4966851;28;119066;-70
2022/10/13 11:09:40;;;;;;;18.38;10.02;;;;;;;18.65;56.30;101606.53;4968348;28;119080;-70
2022/10/13 11:12:46;;;;;;;17.65;10.80;;;;;;;18.60;56.48;101603.28;4950079;28;123062;-70
2022/10/13 11:15:24;;;;;;;17.80;10.10;;;;;;;18.56;56.78;101593.72;4934606;28;122773;-70
2022/10/13 11:17:52;;;;;;;15.98;10.55;;;;;;;18.53;56.60;101585.88;4948218;28;120631;-70
2022/10/13 11:20:19;;;;;;;14.32;10.25;;;;;;;18.51;56.86;101577.91;4968104;28;120083;-70
2022/10/13 11:22:58;;;;;;;16.52;11.15;;;;;;;18.52;56.98;101584.16;4972234;28;124450;-70